Terminal Aerodrome Forecast
Issued by NWS Denver/Boulder, CO

Home | Current Version | Previous Version | Text Only | Print | Product List | Glossary On
Versions: 1 2 3 4 5 6 7 8 9 10 11 12 13 14 15 16 17 18 19 20 21 22 23 24 25 26 27 28 29 30 31 32 33 34 35 36 37 38 39 40 41 42 43 44 45 46 47 48 49 50
000
FTUS45 KBOU 020337 AAE
TAFDEN
TAF AMD
KDEN 020337Z 0204/0306 02007KT P6SM SCT010 BKN025 OVC050
      TEMPO 0204/0206 5SM -SHRA BKN010 OVC025
     FM020600 32008KT P6SM VCSH FEW020 SCT045 BKN060
     FM021200 29006KT P6SM FEW010 SCT070 BKN120
     FM021600 23008KT P6SM FEW120 SCT200
     FM022000 31006KT P6SM FEW090 SCT120
     FM030400 01012KT P6SM SCT080 BKN120=

USA.gov is the U.S. government's official web portal to all federal, state and local government web resources and services.